createdAt,value
2018-09-21T00:01:24.447Z,7.28
2018-09-21T00:03:57.570Z,8.35
2018-09-21T00:06:25.439Z,6.45
2018-09-21T00:08:53.599Z,8.45
2018-09-21T00:11:21.512Z,11.08
2018-09-21T00:13:49.872Z,6.65
2018-09-21T00:16:18.031Z,8.15
2018-09-21T00:18:45.667Z,6.33
2018-09-21T00:21:13.304Z,10.85
2018-09-21T00:23:41.574Z,6.80
2018-09-21T00:26:09.523Z,7.92
2018-09-21T00:28:37.179Z,6.20
2018-09-21T00:31:05.179Z,10.68
2018-09-21T00:33:33.155Z,8.60
2018-09-21T00:36:00.711Z,10.95
2018-09-21T00:38:28.587Z,10.35
2018-09-21T00:40:56.287Z,9.18
2018-09-21T00:43:23.979Z,9.30
2018-09-21T00:45:52.039Z,7.72
2018-09-21T00:48:19.915Z,8.08
2018-09-21T00:50:47.503Z,9.90
2018-09-21T00:53:15.070Z,10.53
2018-09-21T00:55:43.358Z,9.28
2018-09-21T00:58:11.042Z,8.50
2018-09-21T01:04:09.294Z,7.62
2018-09-21T01:06:36.894Z,8.98
2018-09-21T01:09:07.156Z,10.58
2018-09-21T01:11:34.850Z,7.33
2018-09-21T01:14:02.435Z,13.00
2018-09-21T01:16:29.986Z,8.23
2018-09-21T01:18:57.682Z,11.45
2018-09-21T01:21:25.258Z,12.00
2018-09-21T01:23:53.178Z,12.55
2018-09-21T01:26:21.078Z,9.23
2018-09-21T01:28:48.858Z,10.18
2018-09-21T01:31:17.438Z,9.35
2018-09-21T01:33:45.374Z,11.08
2018-09-21T01:36:13.014Z,10.70
2018-09-21T01:38:40.962Z,11.50
2018-09-21T01:41:08.505Z,10.93
2018-09-21T01:43:36.178Z,10.88
2018-09-21T01:46:03.918Z,9.08
2018-09-21T01:48:31.482Z,9.83
2018-09-21T01:50:59.441Z,12.82
2018-09-21T01:53:27.117Z,10.53
2018-09-21T01:55:55.517Z,13.13
2018-09-21T01:58:23.401Z,11.88
2018-09-21T02:00:50.966Z,12.82
2018-09-21T02:03:18.934Z,14.78
2018-09-21T02:05:46.534Z,18.12
2018-09-21T02:08:14.186Z,14.73
2018-09-21T02:10:42.137Z,12.70
2018-09-21T02:13:09.902Z,13.72
2018-09-21T02:15:37.529Z,13.25
2018-09-21T02:18:05.230Z,16.42
2018-09-21T02:20:32.926Z,13.58
2018-09-21T02:23:00.590Z,15.40
2018-09-21T02:25:28.146Z,14.65
2018-09-21T02:27:55.778Z,17.98
2018-09-21T02:30:23.542Z,16.37
2018-09-21T02:32:51.210Z,13.43
2018-09-21T02:35:18.826Z,15.63
2018-09-21T02:37:46.365Z,13.80
2018-09-21T02:40:14.110Z,15.93
2018-09-21T02:42:42.077Z,14.93
2018-09-21T02:45:09.881Z,19.32
2018-09-21T02:47:37.449Z,18.67
2018-09-21T02:50:05.030Z,16.02
2018-09-21T02:52:33.214Z,13.58
2018-09-21T02:55:00.914Z,15.63
2018-09-21T02:57:28.582Z,19.45
2018-09-21T02:59:56.187Z,14.23
2018-09-21T03:02:23.905Z,14.98
2018-09-21T03:04:56.287Z,15.10
2018-09-21T03:07:25.290Z,16.30
2018-09-21T03:09:53.318Z,21.07
2018-09-21T03:12:21.065Z,19.15
2018-09-21T03:14:48.730Z,16.85
2018-09-21T03:17:16.274Z,17.70
2018-09-21T03:19:43.933Z,20.15
2018-09-21T03:22:11.514Z,16.20
2018-09-21T03:24:39.069Z,16.30
2018-09-21T03:27:07.265Z,15.03
2018-09-21T03:29:34.838Z,19.02
2018-09-21T03:32:02.426Z,15.88
2018-09-21T03:34:30.085Z,19.45
2018-09-21T03:36:57.761Z,17.40
2018-09-21T03:39:25.394Z,17.23
2018-09-21T03:41:53.218Z,16.73
2018-09-21T03:44:20.849Z,18.42
2018-09-21T03:46:48.757Z,17.10
2018-09-21T03:49:16.674Z,19.55
2018-09-21T03:51:44.246Z,18.90
2018-09-21T03:54:12.161Z,19.73
2018-09-21T03:56:39.741Z,18.92
2018-09-21T03:59:07.621Z,22.75
2018-09-21T04:01:35.262Z,23.12
2018-09-21T04:04:02.863Z,21.02
2018-09-21T04:06:31.009Z,19.55
2018-09-21T04:08:58.772Z,18.55
2018-09-21T04:11:26.429Z,19.87
2018-09-21T04:13:54.217Z,22.42
2018-09-21T04:16:21.985Z,21.17
2018-09-21T04:18:49.789Z,22.73
2018-09-21T04:21:17.893Z,22.10
2018-09-21T04:23:45.604Z,22.13
2018-09-21T04:26:13.204Z,19.87
2018-09-21T04:28:40.982Z,19.95
2018-09-21T04:31:08.524Z,27.10
2018-09-21T04:33:36.180Z,18.65
2018-09-21T04:36:03.915Z,24.45
2018-09-21T04:38:31.551Z,23.77
2018-09-21T04:40:59.192Z,21.27
2018-09-21T04:43:26.994Z,19.50
2018-09-21T04:45:54.770Z,22.93
2018-09-21T04:48:23.040Z,18.67
2018-09-21T04:50:50.607Z,20.30
2018-09-21T04:53:18.488Z,22.62
2018-09-21T04:55:46.032Z,22.10
2018-09-21T04:58:13.703Z,21.02
2018-09-21T05:00:41.362Z,21.60
2018-09-21T05:03:09.076Z,25.60
2018-09-21T05:05:37.077Z,20.92
2018-09-21T05:08:04.787Z,21.55
2018-09-21T05:10:32.660Z,22.95
2018-09-21T05:13:00.252Z,20.88
2018-09-21T05:15:27.776Z,24.98
2018-09-21T05:17:55.556Z,24.80
2018-09-21T05:20:23.427Z,23.45
2018-09-21T05:22:51.128Z,25.70
2018-09-21T05:25:18.728Z,20.37
2018-09-21T05:27:46.324Z,22.37
2018-09-21T05:30:13.896Z,23.38
2018-09-21T05:32:41.601Z,19.57
2018-09-21T05:35:09.315Z,22.05
2018-09-21T05:37:37.108Z,19.75
2018-09-21T05:40:04.680Z,22.30
2018-09-21T05:42:32.292Z,21.15
2018-09-21T05:44:59.849Z,21.90
2018-09-21T05:47:27.438Z,20.72
2018-09-21T05:49:55.351Z,22.00
2018-09-21T05:52:23.599Z,23.02
2018-09-21T05:54:51.312Z,18.57
2018-09-21T05:57:19.220Z,23.92
2018-09-21T05:59:47.028Z,21.55
2018-09-21T06:02:15.331Z,23.27
2018-09-21T06:04:42.925Z,21.82
2018-09-21T06:07:10.804Z,24.52
2018-09-21T06:09:38.412Z,24.80
2018-09-21T06:12:06.036Z,21.27
2018-09-21T06:14:33.687Z,21.52
2018-09-21T06:17:01.472Z,20.90
2018-09-21T06:19:29.144Z,19.07
2018-09-21T06:21:56.828Z,20.45
2018-09-21T06:24:24.460Z,19.98
2018-09-21T06:26:52.189Z,22.22
2018-09-21T06:29:20.027Z,19.85
2018-09-21T06:31:47.791Z,22.70
2018-09-21T06:34:15.484Z,22.30
2018-09-21T06:36:43.152Z,24.63
2018-09-21T06:39:11.667Z,24.10
2018-09-21T06:41:39.645Z,19.05
2018-09-21T06:44:07.928Z,20.02
2018-09-21T06:46:35.800Z,18.25
2018-09-21T06:49:03.515Z,19.15
2018-09-21T06:51:31.284Z,21.15
2018-09-21T06:53:59.392Z,20.77
2018-09-21T06:56:26.944Z,18.67
2018-09-21T06:58:54.684Z,17.90
2018-09-21T07:01:22.990Z,20.27
2018-09-21T07:03:50.583Z,21.62
2018-09-21T07:06:18.324Z,23.15
2018-09-21T07:08:46.275Z,23.42
2018-09-21T07:11:13.855Z,22.22
2018-09-21T07:13:41.435Z,22.07
2018-09-21T07:16:09.047Z,22.30
2018-09-21T07:18:37.011Z,20.30
2018-09-21T07:21:04.735Z,22.20
2018-09-21T07:23:32.703Z,18.10
2018-09-21T07:26:00.595Z,20.17
2018-09-21T07:31:59.160Z,15.53
2018-09-21T07:34:27.220Z,17.15
2018-09-21T07:36:55.027Z,16.90
2018-09-21T07:39:22.631Z,20.08
2018-09-21T07:41:50.299Z,17.42
2018-09-21T07:44:17.879Z,15.98
2018-09-21T07:46:45.447Z,16.95
2018-09-21T07:49:13.008Z,20.15
2018-09-21T07:51:40.975Z,17.77
2018-09-21T07:54:08.520Z,17.82
2018-09-21T07:56:36.065Z,18.50
2018-09-21T07:59:03.725Z,16.07
2018-09-21T08:01:31.392Z,14.15
2018-09-21T08:03:59.159Z,12.58
2018-09-21T08:06:27.119Z,13.68
2018-09-21T08:08:55.032Z,11.28
2018-09-21T08:11:22.579Z,12.75
2018-09-21T08:13:50.183Z,11.08
2018-09-21T08:16:17.711Z,14.07
2018-09-21T08:18:45.279Z,12.82
2018-09-21T08:21:13.159Z,11.68
2018-09-21T08:23:40.836Z,14.53
2018-09-21T08:26:08.519Z,12.78
2018-09-21T08:30:05.643Z,15.15
2018-09-21T08:32:33.275Z,14.18
2018-09-21T08:35:00.904Z,12.68
2018-09-21T08:37:28.516Z,13.95
2018-09-21T08:39:56.575Z,13.50
2018-09-21T08:42:24.191Z,14.33
2018-09-21T08:44:52.771Z,16.80
2018-09-21T08:47:20.438Z,12.65
2018-09-21T08:49:48.481Z,12.90
2018-09-21T08:52:16.451Z,13.13
2018-09-21T08:54:43.999Z,11.75
2018-09-21T08:57:11.877Z,15.13
2018-09-21T08:59:39.475Z,12.80
2018-09-21T09:02:07.179Z,18.80
2018-09-21T09:04:34.739Z,16.15
2018-09-21T09:07:02.299Z,13.72
2018-09-21T09:09:30.203Z,15.53
2018-09-21T09:11:58.831Z,20.70
2018-09-21T09:14:26.429Z,14.68
2018-09-21T09:16:54.155Z,12.63
2018-09-21T09:19:22.151Z,18.73
2018-09-21T09:21:49.736Z,19.23
2018-09-21T09:24:17.335Z,14.50
2018-09-21T09:26:44.910Z,17.07
2018-09-21T09:29:12.810Z,21.73
2018-09-21T09:31:40.370Z,12.10
2018-09-21T09:34:08.311Z,12.88
2018-09-21T09:36:35.971Z,16.42
2018-09-21T09:39:06.719Z,11.75
2018-09-21T09:41:34.431Z,13.75
2018-09-21T09:44:02.015Z,15.20
2018-09-21T09:46:29.956Z,11.05
2018-09-21T09:48:57.804Z,12.03
2018-09-21T09:51:25.363Z,13.65
2018-09-21T09:53:53.575Z,17.95
2018-09-21T09:56:21.155Z,11.85
2018-09-21T09:58:48.855Z,12.60
2018-09-21T10:01:16.738Z,12.25
2018-09-21T10:03:44.938Z,10.50
2018-09-21T10:06:12.848Z,16.42
2018-09-21T10:08:40.390Z,13.05
2018-09-21T10:11:08.410Z,11.20
2018-09-21T10:13:36.186Z,11.38
2018-09-21T10:16:04.250Z,21.50
2018-09-21T10:18:31.826Z,16.93
2018-09-21T10:20:59.602Z,15.30
2018-09-21T10:23:27.275Z,13.45
2018-09-21T10:25:54.942Z,12.35
2018-09-21T10:28:23.114Z,12.78
2018-09-21T10:30:50.446Z,13.70
2018-09-21T10:33:18.769Z,10.23
2018-09-21T10:35:46.712Z,13.38
2018-09-21T10:38:14.546Z,12.10
2018-09-21T10:40:42.150Z,11.60
2018-09-21T10:43:10.233Z,12.80
2018-09-21T10:45:38.117Z,26.45
2018-09-21T10:48:05.938Z,12.55
2018-09-21T10:50:33.530Z,10.70
2018-09-21T10:53:01.457Z,9.73
2018-09-21T10:55:29.683Z,10.80
2018-09-21T10:57:57.245Z,9.55
2018-09-21T11:00:25.078Z,17.42
2018-09-21T11:02:52.978Z,14.58
2018-09-21T11:05:20.542Z,10.58
2018-09-21T11:07:48.693Z,12.45
2018-09-21T11:10:16.897Z,9.15
2018-09-21T11:12:44.565Z,11.12
2018-09-21T11:15:12.689Z,12.65
2018-09-21T11:17:40.573Z,10.25
2018-09-21T11:20:08.517Z,11.80
2018-09-21T11:22:36.065Z,9.48
2018-09-21T11:25:04.121Z,11.50
2018-09-21T11:27:32.065Z,14.58
2018-09-21T11:30:00.017Z,10.03
2018-09-21T11:32:28.009Z,11.85
2018-09-21T11:34:55.837Z,38.53
2018-09-21T11:37:23.389Z,11.33
2018-09-21T11:39:51.095Z,9.30
2018-09-21T11:42:18.681Z,11.18
2018-09-21T11:44:46.684Z,22.77
2018-09-21T11:47:14.497Z,14.40
2018-09-21T11:49:42.589Z,15.30
2018-09-21T11:52:10.260Z,11.63
2018-09-21T11:54:37.933Z,8.28
2018-09-21T11:57:05.849Z,7.92
2018-09-21T11:59:33.597Z,10.95
2018-09-21T12:02:01.338Z,8.30
2018-09-21T12:04:29.581Z,6.85
2018-09-21T12:09:55.853Z,8.75
2018-09-21T12:12:23.397Z,14.87
2018-09-21T12:14:51.677Z,8.33
2018-09-21T12:17:19.617Z,8.33
2018-09-21T12:19:47.329Z,8.43
2018-09-21T12:22:15.734Z,7.85
2018-09-21T12:24:43.424Z,6.58
2018-09-21T12:27:11.140Z,6.60
2018-09-21T12:29:39.061Z,7.15
2018-09-21T12:32:06.680Z,8.80
2018-09-21T12:34:34.205Z,9.50
2018-09-21T12:37:01.773Z,7.17
2018-09-21T12:39:29.632Z,9.98
2018-09-21T12:41:57.264Z,8.43
2018-09-21T12:44:24.873Z,7.28
2018-09-21T12:46:52.655Z,12.58
2018-09-21T12:49:20.224Z,11.93
2018-09-21T12:51:47.900Z,8.98
2018-09-21T12:54:15.676Z,14.25
2018-09-21T12:56:43.304Z,10.93
2018-09-21T12:59:11.204Z,15.70
2018-09-21T13:01:39.028Z,9.05
2018-09-21T13:04:06.724Z,11.03
2018-09-21T13:06:34.284Z,10.93
2018-09-21T13:09:01.907Z,20.43
2018-09-21T13:11:29.460Z,8.70
2018-09-21T13:13:57.175Z,12.33
2018-09-21T13:16:24.739Z,10.32
2018-09-21T13:18:53.115Z,9.90
2018-09-21T14:02:36.761Z,14.70
2018-09-21T14:05:05.237Z,7.10
2018-09-21T14:07:33.929Z,13.10
2018-09-21T14:10:02.752Z,16.55
2018-09-21T14:12:31.656Z,8.68
2018-09-21T14:15:00.147Z,9.80
2018-09-21T14:17:28.593Z,11.12
2018-09-21T14:19:57.071Z,10.18
2018-09-21T14:22:25.555Z,13.22
2018-09-21T14:24:54.150Z,11.10
2018-09-21T14:27:22.995Z,10.93
2018-09-21T14:29:52.334Z,9.48
2018-09-21T14:32:21.088Z,11.08
2018-09-21T14:34:49.553Z,10.60
2018-09-21T14:37:18.024Z,8.13
2018-09-21T14:39:46.472Z,9.60
2018-09-21T14:42:14.923Z,9.58
2018-09-21T14:44:43.483Z,10.72
2018-09-21T14:47:11.972Z,11.63
2018-09-21T14:49:40.475Z,9.75
2018-09-21T14:52:08.944Z,7.12
2018-09-21T14:54:37.452Z,11.93
2018-09-21T14:57:05.924Z,10.35
2018-09-21T14:59:34.371Z,12.33
2018-09-21T15:02:03.153Z,10.95
2018-09-21T15:04:31.624Z,11.28
2018-09-21T15:07:00.075Z,9.65
2018-09-21T15:09:28.754Z,10.43
2018-09-21T15:11:57.488Z,11.83
2018-09-21T15:14:26.297Z,12.60
2018-09-21T15:16:54.767Z,8.38
2018-09-21T15:19:23.648Z,9.90
2018-09-21T15:21:52.412Z,16.20
2018-09-21T15:24:20.892Z,13.60
2018-09-21T15:26:49.353Z,12.33
2018-09-21T15:29:18.408Z,11.20
2018-09-21T15:31:47.151Z,11.45
2018-09-21T15:34:15.623Z,10.78
2018-09-21T15:36:44.091Z,11.40
2018-09-21T15:39:13.114Z,8.45
2018-09-21T15:41:42.294Z,14.80
2018-09-21T15:44:10.777Z,10.90
2018-09-21T15:46:39.227Z,10.78
2018-09-21T15:49:07.741Z,16.15
2018-09-21T15:51:36.705Z,14.00
2018-09-21T15:54:05.209Z,14.23
2018-09-21T15:56:33.789Z,17.90
2018-09-21T15:59:02.249Z,12.55
2018-09-21T16:01:30.733Z,13.83
2018-09-21T16:03:59.216Z,12.75
2018-09-21T16:06:32.528Z,14.20
2018-09-21T16:09:02.213Z,17.57
2018-09-21T16:11:30.985Z,9.75
2018-09-21T16:13:59.864Z,13.00
2018-09-21T16:16:28.319Z,13.48
2018-09-21T16:18:56.777Z,12.35
2018-09-21T16:21:25.232Z,15.85
2018-09-21T16:23:53.723Z,15.58
2018-09-21T16:26:22.451Z,15.98
2018-09-21T16:28:50.951Z,11.30
2018-09-21T16:31:19.499Z,12.63
2018-09-21T16:33:48.147Z,12.75
2018-09-21T16:36:16.642Z,12.93
2018-09-21T16:38:45.182Z,11.53
2018-09-21T16:41:13.679Z,16.93
2018-09-21T16:43:42.256Z,15.35
2018-09-21T16:46:10.759Z,13.50
2018-09-21T16:48:39.519Z,12.28
2018-09-21T16:51:08.010Z,17.10
2018-09-21T16:53:36.535Z,14.33
2018-09-21T16:56:04.996Z,14.85
2018-09-21T16:58:33.468Z,16.32
2018-09-21T17:01:01.934Z,13.90
2018-09-21T17:03:30.420Z,15.95
2018-09-21T17:05:58.940Z,20.70
2018-09-21T17:08:27.407Z,12.58
2018-09-21T17:10:56.209Z,19.12
2018-09-21T17:13:24.676Z,17.07
2018-09-21T17:15:53.164Z,12.50
2018-09-21T17:18:21.636Z,16.00
2018-09-21T17:20:50.192Z,13.75
2018-09-21T17:23:18.676Z,16.37
2018-09-21T17:25:47.188Z,20.17
2018-09-21T17:28:16.254Z,19.95
2018-09-21T17:30:45.127Z,18.70
2018-09-21T17:33:13.651Z,21.70
2018-09-21T17:35:42.363Z,19.82
2018-09-21T17:38:10.912Z,14.60
2018-09-21T17:40:39.838Z,18.70
2018-09-21T17:43:08.362Z,17.57
2018-09-21T17:45:37.046Z,15.40
2018-09-21T17:48:05.710Z,17.48
2018-09-21T17:50:34.211Z,16.55
2018-09-21T17:53:02.693Z,15.93
2018-09-21T17:55:31.180Z,16.70
2018-09-21T17:57:59.932Z,21.97
2018-09-21T18:00:28.513Z,18.40
2018-09-21T18:02:56.989Z,17.92
2018-09-21T18:05:25.465Z,15.53
2018-09-21T18:07:53.943Z,14.80
2018-09-21T18:10:22.575Z,20.75
2018-09-21T18:12:51.175Z,19.37
2018-09-21T18:15:23.175Z,18.85
2018-09-21T18:17:53.299Z,20.30
2018-09-21T18:20:22.115Z,17.60
2018-09-21T18:22:50.988Z,21.48
2018-09-21T18:25:20.252Z,19.52
2018-09-21T18:27:48.733Z,21.00
2018-09-21T18:33:48.390Z,22.17
2018-09-21T18:36:18.684Z,17.30
2018-09-21T18:38:47.199Z,17.75
2018-09-21T18:41:15.896Z,17.07
2018-09-21T18:43:44.394Z,21.60
2018-09-21T18:46:13.027Z,17.85
2018-09-21T18:48:42.031Z,17.80
2018-09-21T18:51:11.287Z,17.98
2018-09-21T18:53:40.023Z,14.85
2018-09-21T18:56:08.546Z,21.55
2018-09-21T18:58:37.235Z,20.70
2018-09-21T19:01:05.736Z,19.40
2018-09-21T19:03:34.439Z,17.90
2018-09-21T19:06:02.957Z,21.33
2018-09-21T19:08:31.411Z,19.55
2018-09-21T19:11:00.560Z,24.25
2018-09-21T19:13:29.049Z,17.10
2018-09-21T19:15:57.666Z,15.55
2018-09-21T19:18:26.173Z,20.72
2018-09-21T19:20:54.709Z,17.32
2018-09-21T19:23:23.222Z,18.12
2018-09-21T19:25:51.728Z,18.42
2018-09-21T19:28:20.221Z,22.65
2018-09-21T19:30:49.934Z,22.75
2018-09-21T19:33:18.550Z,18.52
2018-09-21T19:35:48.170Z,21.70
2018-09-21T19:38:16.638Z,20.15
2018-09-21T19:40:45.558Z,15.95
2018-09-21T19:43:14.086Z,23.77
2018-09-21T19:45:42.704Z,22.25
2018-09-21T19:48:11.605Z,18.95
2018-09-21T19:50:41.674Z,18.23
2018-09-21T19:53:10.367Z,17.57
2018-09-21T19:55:39.194Z,16.48
2018-09-21T19:58:09.154Z,19.37
2018-09-21T20:00:37.854Z,26.48
2018-09-21T20:03:06.884Z,16.07
2018-09-21T20:05:35.623Z,21.90
2018-09-21T20:08:08.010Z,22.77
2018-09-21T20:10:36.855Z,11.78
2018-09-21T20:13:05.364Z,9.33
2018-09-21T20:15:34.181Z,11.90
2018-09-21T20:18:02.917Z,12.13
2018-09-21T20:20:31.377Z,8.93
2018-09-21T20:23:01.005Z,6.78
2018-09-21T20:25:29.517Z,9.03
2018-09-21T20:27:58.016Z,7.08
2018-09-21T20:30:31.904Z,7.72
2018-09-21T20:33:05.687Z,4.25
2018-09-21T20:35:34.230Z,8.10
2018-09-21T20:38:03.073Z,6.08
2018-09-21T20:40:31.774Z,2.22
2018-09-21T20:43:00.530Z,3.42
2018-09-21T20:45:29.017Z,3.08
2018-09-21T20:47:57.591Z,6.97
2018-09-21T20:50:26.137Z,4.40
2018-09-21T20:52:54.974Z,3.70
2018-09-21T20:55:23.493Z,4.45
2018-09-21T20:57:51.986Z,3.17
2018-09-21T21:00:20.605Z,3.55
2018-09-21T21:02:49.449Z,3.05
2018-09-21T21:05:17.959Z,2.58
2018-09-21T21:07:46.784Z,2.17
2018-09-21T21:10:15.247Z,4.95
2018-09-21T21:12:44.068Z,3.40
2018-09-21T21:15:12.648Z,6.55
2018-09-21T21:17:41.312Z,2.42
2018-09-21T21:20:09.768Z,5.70
2018-09-21T21:22:38.204Z,6.25
2018-09-21T21:25:06.684Z,2.90
2018-09-21T21:27:35.144Z,3.52
2018-09-21T21:30:03.621Z,6.47
2018-09-21T21:32:32.075Z,3.08
2018-09-21T21:35:00.738Z,4.83
2018-09-21T21:37:29.272Z,4.87
2018-09-21T21:39:57.716Z,3.40
2018-09-21T21:42:26.479Z,4.55
2018-09-21T21:44:55.075Z,2.30
2018-09-21T21:47:23.535Z,6.47
2018-09-21T21:49:52.463Z,4.20
2018-09-21T21:52:20.919Z,5.60
2018-09-21T21:54:49.371Z,4.35
2018-09-21T21:57:17.807Z,4.58
2018-09-21T21:59:46.327Z,5.42
2018-09-21T22:02:14.770Z,2.02
2018-09-21T22:04:43.287Z,4.22
2018-09-21T22:07:12.614Z,1.57
2018-09-21T22:09:41.206Z,2.72
2018-09-21T22:12:15.050Z,1.35
2018-09-21T22:14:43.690Z,1.82
2018-09-21T22:17:12.482Z,1.52
2018-09-21T22:19:41.028Z,3.47
2018-09-21T22:22:09.486Z,3.08
2018-09-21T22:24:37.998Z,3.20
2018-09-21T22:27:06.538Z,3.95
2018-09-21T22:29:35.253Z,4.05
2018-09-21T22:32:03.721Z,4.75
2018-09-21T22:34:32.190Z,3.67
2018-09-21T22:37:00.657Z,2.33
2018-09-21T22:39:29.177Z,0.68
2018-09-21T22:41:57.646Z,3.77
2018-09-21T22:44:26.601Z,1.92
2018-09-21T22:46:55.150Z,1.82
2018-09-21T22:49:24.513Z,2.40
2018-09-21T22:51:52.977Z,2.70
2018-09-21T22:54:21.758Z,4.65
2018-09-21T22:56:50.778Z,3.72
2018-09-21T22:59:19.385Z,1.60
2018-09-21T23:01:47.833Z,2.37
2018-09-21T23:04:16.289Z,0.70
2018-09-21T23:06:45.046Z,2.20
2018-09-21T23:09:13.784Z,1.25
2018-09-21T23:11:42.909Z,2.67
2018-09-21T23:14:11.685Z,2.70
2018-09-21T23:16:40.538Z,2.22
2018-09-21T23:19:09.321Z,2.58
2018-09-21T23:21:37.833Z,2.52
2018-09-21T23:24:06.306Z,1.25
2018-09-21T23:26:34.761Z,3.22
2018-09-21T23:29:03.205Z,1.42
2018-09-21T23:31:31.674Z,4.37
2018-09-21T23:34:00.951Z,1.40
2018-09-21T23:36:29.409Z,2.60
2018-09-21T23:38:57.873Z,2.30
2018-09-21T23:41:26.665Z,2.50
2018-09-21T23:43:55.144Z,3.40
2018-09-21T23:46:23.841Z,2.75
2018-09-21T23:48:52.289Z,3.15
2018-09-21T23:51:21.109Z,4.53
2018-09-21T23:53:49.764Z,7.47
2018-09-21T23:56:18.239Z,1.72
2018-09-21T23:58:46.718Z,3.95
